Time;durP1;ratioP1;P1;durP2;ratioP2;P2;SDS_P1;SDS_P2;PMS_P1;PMS_P2;Temp;Humidity;BMP_temperature;BMP_pressure;BME280_temperature;BME280_humidity;BME280_pressure;Samples;Min_cycle;Max_cycle;Signal;HPM_P1;HPM_P2
2020/12/27 00:00:26;;;;;;;4.05;3.65;;;5.90;85.00;;;;;;4989885;28;20034;-95
2020/12/27 00:02:52;;;;;;;4.93;3.88;;;5.90;85.00;;;;;;4993427;28;20046;-95
2020/12/27 00:05:17;;;;;;;3.85;3.42;;;5.90;85.00;;;;;;4999325;28;20361;-94
2020/12/27 00:07:44;;;;;;;4.32;3.72;;;5.90;84.90;;;;;;4952780;28;20043;-94
2020/12/27 00:10:09;;;;;;;3.15;2.80;;;5.90;84.80;;;;;;4969467;28;20035;-94
2020/12/27 00:12:35;;;;;;;3.30;2.97;;;5.90;84.90;;;;;;4965394;28;20030;-95
2020/12/27 00:15:01;;;;;;;3.63;3.28;;;5.90;84.90;;;;;;4973406;28;20027;-95
2020/12/27 00:17:26;;;;;;;3.75;3.20;;;5.90;84.70;;;;;;4967282;28;20027;-94
2020/12/27 00:19:52;;;;;;;5.18;3.13;;;5.90;84.60;;;;;;4961321;28;20038;-94
2020/12/27 00:22:20;;;;;;;2.88;2.50;;;6.00;84.70;;;;;;4978479;28;20026;-95
2020/12/27 00:24:46;;;;;;;4.90;3.25;;;5.90;84.40;;;;;;4956127;28;20046;-96
2020/12/27 00:27:33;;;;;;;3.70;3.40;;;5.90;84.60;;;;;;4971522;28;20086;-96
2020/12/27 00:29:59;;;;;;;2.50;2.20;;;5.90;84.40;;;;;;4982115;28;20054;-96
2020/12/27 00:32:31;;;;;;;3.67;2.90;;;5.90;84.50;;;;;;4969796;28;20051;-95
2020/12/27 00:34:57;;;;;;;3.13;2.60;;;6.00;84.40;;;;;;4985487;28;20809;-95
2020/12/27 00:37:22;;;;;;;3.13;2.50;;;5.90;84.30;;;;;;4954749;28;20012;-94
2020/12/27 00:39:54;;;;;;;2.92;2.58;;;6.00;84.30;;;;;;4946662;28;20042;-95
2020/12/27 00:42:21;;;;;;;3.88;2.97;;;5.90;84.10;;;;;;4970673;28;20084;-95
2020/12/27 00:44:46;;;;;;;3.15;2.85;;;6.00;84.00;;;;;;4969840;28;20031;-94
2020/12/27 00:47:12;;;;;;;3.05;2.72;;;6.00;83.90;;;;;;4961731;28;20050;-94
2020/12/27 00:49:38;;;;;;;3.50;2.78;;;6.00;83.70;;;;;;4949085;28;20361;-93
2020/12/27 00:52:03;;;;;;;5.47;3.40;;;6.00;83.60;;;;;;4960499;28;20016;-93
2020/12/27 00:54:29;;;;;;;3.50;2.80;;;5.90;83.40;;;;;;4953012;28;20024;-94
2020/12/27 00:56:54;;;;;;;2.78;2.50;;;5.90;83.30;;;;;;4989406;28;20023;-94
2020/12/27 00:59:21;;;;;;;2.67;2.45;;;5.90;83.30;;;;;;4967473;28;20035;-94
2020/12/27 01:01:46;;;;;;;3.83;3.20;;;5.90;83.30;;;;;;4959221;28;20480;-94
2020/12/27 01:04:12;;;;;;;3.00;2.63;;;5.90;83.00;;;;;;4980989;28;20034;-93
2020/12/27 01:06:38;;;;;;;3.20;2.55;;;5.90;83.70;;;;;;4971141;28;20019;-94
2020/12/27 01:09:04;;;;;;;3.53;2.95;;;5.90;82.90;;;;;;4944036;28;20066;-93
2020/12/27 01:11:30;;;;;;;3.67;2.80;;;5.90;82.90;;;;;;4959146;28;20393;-93
2020/12/27 01:13:56;;;;;;;3.33;2.85;;;5.90;82.80;;;;;;4967910;28;20035;-94
2020/12/27 01:16:21;;;;;;;3.67;2.60;;;5.90;82.70;;;;;;4972706;28;20027;-94
2020/12/27 01:18:48;;;;;;;3.75;2.75;;;5.90;82.60;;;;;;4969485;28;20058;-96
2020/12/27 01:21:28;;;;;;;2.60;2.35;;;5.80;82.30;;;;;;4965144;28;20051;-95
2020/12/27 01:23:54;;;;;;;2.72;2.40;;;5.90;82.40;;;;;;4940327;29;20096;-95
2020/12/27 01:26:34;;;;;;;4.15;3.20;;;5.90;82.40;;;;;;4942722;29;20036;-95
2020/12/27 01:29:00;;;;;;;3.00;2.70;;;5.80;82.20;;;;;;4955271;28;20030;-95
2020/12/27 01:31:26;;;;;;;3.25;2.47;;;5.80;82.10;;;;;;4942758;29;20255;-95
2020/12/27 01:33:53;;;;;;;2.90;2.60;;;5.90;82.20;;;;;;4942471;28;20081;-94
2020/12/27 01:36:33;;;;;;;3.45;3.10;;;5.80;82.10;;;;;;4964262;28;20178;-94
2020/12/27 01:39:00;;;;;;;3.30;2.95;;;5.80;82.20;;;;;;4943059;29;20035;-94
2020/12/27 01:41:26;;;;;;;3.33;2.92;;;5.80;82.00;;;;;;4957899;28;20138;-95
2020/12/27 01:43:58;;;;;;;4.18;2.60;;;5.80;82.10;;;;;;4963811;28;20110;-95
2020/12/27 01:46:24;;;;;;;2.70;2.45;;;5.80;82.20;;;;;;4964787;28;20027;-95
2020/12/27 01:48:50;;;;;;;4.30;3.47;;;5.80;82.20;;;;;;4961425;28;20042;-94
2020/12/27 01:51:15;;;;;;;3.00;2.70;;;5.80;82.00;;;;;;4962308;28;20109;-95
2020/12/27 01:53:41;;;;;;;3.78;3.15;;;5.80;82.00;;;;;;4962477;28;20066;-94
2020/12/27 01:56:11;;;;;;;4.40;3.40;;;5.80;81.90;;;;;;4979981;28;20047;-93
2020/12/27 01:58:39;;;;;;;4.70;3.83;;;5.80;81.90;;;;;;4961917;28;20489;-94
2020/12/27 02:01:05;;;;;;;5.30;3.35;;;5.80;81.90;;;;;;4956986;28;20035;-92
2020/12/27 02:03:31;;;;;;;3.97;3.30;;;5.80;82.00;;;;;;4967116;28;20037;-95
2020/12/27 02:05:56;;;;;;;3.90;3.38;;;5.70;81.90;;;;;;4971832;28;20078;-93
2020/12/27 02:08:22;;;;;;;3.13;2.83;;;5.70;82.00;;;;;;4974011;28;20023;-93
2020/12/27 02:10:51;;;;;;;3.13;2.60;;;5.70;82.10;;;;;;4970771;28;20042;-92
2020/12/27 02:13:17;;;;;;;3.53;2.80;;;5.80;82.20;;;;;;4958937;28;20027;-94
2020/12/27 02:15:42;;;;;;;5.43;4.28;;;5.80;82.10;;;;;;4957873;28;20039;-95
2020/12/27 02:18:09;;;;;;;3.97;2.70;;;5.80;82.00;;;;;;4958757;28;20083;-93
2020/12/27 02:20:34;;;;;;;6.47;4.22;;;5.80;82.10;;;;;;4944897;28;20083;-92
2020/12/27 02:23:00;;;;;;;5.00;3.58;;;5.80;82.00;;;;;;4981478;28;20019;-95
2020/12/27 02:25:25;;;;;;;5.13;3.83;;;5.80;81.90;;;;;;4988980;28;20033;-94
2020/12/27 02:27:51;;;;;;;4.43;3.25;;;5.70;81.80;;;;;;4967480;28;20031;-94
2020/12/27 02:30:17;;;;;;;4.40;3.05;;;5.70;81.70;;;;;;4977305;28;20046;-95
2020/12/27 02:32:42;;;;;;;4.10;3.28;;;5.60;81.70;;;;;;4966811;28;20054;-93
2020/12/27 02:35:08;;;;;;;4.15;3.10;;;5.70;82.00;;;;;;4977505;28;20105;-95
2020/12/27 02:37:33;;;;;;;4.65;4.10;;;5.70;81.90;;;;;;4969125;28;20031;-96
2020/12/27 02:39:59;;;;;;;4.28;3.30;;;5.60;81.90;;;;;;4950287;28;20043;-96
2020/12/27 02:42:25;;;;;;;5.82;3.20;;;5.60;81.90;;;;;;4952036;28;20022;-96
2020/12/27 02:47:28;;;;;;;4.18;3.53;;;5.70;82.00;;;;;;4972856;28;20488;-95
2020/12/27 02:49:53;;;;;;;5.35;3.28;;;5.60;82.00;;;;;;4965460;28;20074;-95
2020/12/27 02:52:19;;;;;;;6.35;4.28;;;5.60;82.00;;;;;;4959374;28;20019;-96
2020/12/27 02:54:45;;;;;;;6.35;4.60;;;5.60;82.00;;;;;;4958776;28;20348;-96
2020/12/27 02:57:10;;;;;;;4.75;3.70;;;5.50;82.00;;;;;;4952131;28;20027;-95
2020/12/27 02:59:36;;;;;;;4.28;2.95;;;5.60;82.00;;;;;;4994561;28;20026;-95
2020/12/27 03:02:01;;;;;;;4.07;3.13;;;5.60;82.10;;;;;;4992541;28;20087;-96
2020/12/27 03:04:27;;;;;;;4.53;3.40;;;5.60;82.20;;;;;;4995239;28;20094;-96
2020/12/27 03:06:52;;;;;;;4.80;3.75;;;5.60;82.00;;;;;;4982647;28;20038;-96
2020/12/27 03:09:18;;;;;;;6.22;3.70;;;5.60;82.10;;;;;;4968789;28;20038;-96
2020/12/27 03:11:43;;;;;;;4.10;3.03;;;5.60;82.00;;;;;;4978400;28;20035;-96
2020/12/27 03:14:11;;;;;;;5.80;3.70;;;5.60;82.10;;;;;;4972612;28;20037;-96
2020/12/27 03:16:36;;;;;;;5.15;3.00;;;5.60;82.00;;;;;;4946492;28;20026;-96
2020/12/27 03:19:02;;;;;;;3.83;2.58;;;5.60;82.00;;;;;;4965818;28;20082;-96
2020/12/27 03:21:27;;;;;;;3.50;2.40;;;5.60;82.00;;;;;;4939993;28;20026;-93
2020/12/27 03:23:53;;;;;;;3.38;2.97;;;5.70;82.10;;;;;;4965985;28;20027;-94
2020/12/27 03:26:18;;;;;;;2.65;2.38;;;5.70;82.10;;;;;;4968264;28;20024;-95
2020/12/27 03:28:44;;;;;;;4.50;2.80;;;5.70;82.10;;;;;;4963239;28;20464;-95
2020/12/27 03:31:09;;;;;;;4.47;3.22;;;5.70;82.10;;;;;;4970128;28;20019;-95
2020/12/27 03:33:35;;;;;;;4.55;3.70;;;5.70;81.90;;;;;;4962247;28;20041;-95
2020/12/27 03:36:01;;;;;;;3.65;2.70;;;5.70;81.80;;;;;;4955749;28;20015;-94
2020/12/27 03:38:26;;;;;;;4.40;2.90;;;5.70;81.80;;;;;;4962187;28;20189;-95
2020/12/27 03:40:52;;;;;;;3.70;2.90;;;5.70;81.80;;;;;;4973725;28;20101;-94
2020/12/27 03:43:17;;;;;;;4.40;2.60;;;5.60;81.70;;;;;;4965740;28;20038;-95
2020/12/27 03:45:43;;;;;;;3.47;2.47;;;5.60;81.80;;;;;;4956925;29;20098;-95
2020/12/27 03:48:08;;;;;;;5.20;3.53;;;5.60;81.90;;;;;;4965749;28;20022;-95
2020/12/27 03:50:34;;;;;;;3.83;2.30;;;5.60;81.80;;;;;;4972293;28;20035;-95
2020/12/27 03:53:00;;;;;;;3.97;3.00;;;5.60;82.00;;;;;;4964122;28;20015;-94
2020/12/27 03:55:25;;;;;;;3.45;2.70;;;5.60;82.00;;;;;;4986084;28;20062;-94
2020/12/27 03:57:51;;;;;;;4.90;3.10;;;5.50;82.10;;;;;;4951565;28;20065;-94
2020/12/27 04:00:16;;;;;;;4.55;3.10;;;5.60;82.70;;;;;;4965852;28;20128;-93
2020/12/27 04:02:42;;;;;;;3.13;2.50;;;5.60;82.20;;;;;;4945186;28;20031;-96
2020/12/27 04:05:07;;;;;;;3.95;2.90;;;5.60;82.30;;;;;;4971421;28;20023;-94
2020/12/27 04:07:33;;;;;;;3.70;2.97;;;5.60;82.40;;;;;;4971547;28;20035;-95
2020/12/27 04:09:59;;;;;;;4.28;3.10;;;5.60;82.20;;;;;;4956884;28;20071;-93
2020/12/27 04:12:26;;;;;;;3.50;2.67;;;5.60;82.20;;;;;;4960352;28;20023;-95
2020/12/27 04:14:52;;;;;;;4.70;2.85;;;5.60;82.30;;;;;;4971118;28;20366;-95
2020/12/27 04:17:18;;;;;;;3.25;2.20;;;5.60;82.30;;;;;;4971663;28;20023;-95
2020/12/27 04:19:43;;;;;;;5.05;3.33;;;5.60;82.40;;;;;;4968451;28;20607;-95
2020/12/27 04:22:09;;;;;;;4.47;3.33;;;5.60;82.50;;;;;;4968427;28;20062;-95
2020/12/27 04:24:34;;;;;;;3.65;3.00;;;5.60;82.60;;;;;;4961728;28;20070;-95
2020/12/27 04:27:03;;;;;;;4.38;3.10;;;5.60;82.70;;;;;;4938952;29;20027;-96
2020/12/27 04:29:40;;;;;;;2.47;2.22;;;5.60;82.60;;;;;;4962183;28;20055;-96
2020/12/27 04:32:06;;;;;;;3.22;2.70;;;5.60;82.70;;;;;;4935396;29;20501;-94
2020/12/27 04:34:31;;;;;;;5.32;3.45;;;5.60;82.70;;;;;;4951317;28;20023;-95
2020/12/27 04:36:57;;;;;;;3.53;3.13;;;5.60;82.60;;;;;;4962512;28;20129;-95
2020/12/27 04:39:23;;;;;;;4.53;3.30;;;5.60;82.50;;;;;;4962646;28;20076;-95
2020/12/27 04:41:48;;;;;;;4.30;2.63;;;5.60;82.50;;;;;;4964358;28;20030;-95
2020/12/27 04:44:15;;;;;;;3.40;2.30;;;5.60;82.50;;;;;;4950104;28;20023;-95
2020/12/27 04:46:41;;;;;;;3.03;2.70;;;5.70;82.60;;;;;;4960332;28;20024;-96
2020/12/27 04:49:08;;;;;;;3.40;2.53;;;5.70;82.50;;;;;;4967614;28;20038;-94
2020/12/27 04:51:35;;;;;;;3.13;1.88;;;5.70;82.40;;;;;;4969091;28;20035;-93
2020/12/27 04:54:00;;;;;;;3.30;2.40;;;5.70;82.40;;;;;;4974247;28;20089;-93
2020/12/27 04:56:26;;;;;;;2.72;2.00;;;5.80;82.30;;;;;;4972522;28;20023;-96
2020/12/27 04:58:56;;;;;;;2.78;2.10;;;5.80;82.20;;;;;;4964054;28;20035;-95
2020/12/27 05:01:23;;;;;;;2.92;2.40;;;5.80;82.10;;;;;;4980088;28;20027;-96
2020/12/27 05:03:55;;;;;;;3.55;2.30;;;5.80;82.20;;;;;;4961002;28;20051;-96
2020/12/27 05:06:22;;;;;;;2.25;1.98;;;5.80;82.20;;;;;;4959822;28;20085;-96
2020/12/27 05:08:47;;;;;;;2.80;1.95;;;5.80;82.40;;;;;;4971904;28;20031;-95
2020/12/27 05:11:14;;;;;;;3.72;2.25;;;5.80;82.50;;;;;;4968185;28;20089;-96
2020/12/27 05:13:43;;;;;;;2.63;2.00;;;5.80;82.70;;;;;;4944513;29;20106;-96
2020/12/27 05:16:28;;;;;;;2.40;2.00;;;5.80;82.80;;;;;;4971578;28;20087;-96
2020/12/27 05:24:05;;;;;;;2.10;1.80;;;5.80;83.10;;;;;;5130717;22;20300;31
2020/12/27 05:26:32;;;;;;;1.60;1.42;;;5.80;83.20;;;;;;5003768;28;20509;-94
2020/12/27 05:28:57;;;;;;;1.88;1.70;;;5.70;83.30;;;;;;5000195;28;20121;-94
2020/12/27 05:31:33;;;;;;;3.03;2.17;;;5.70;83.50;;;;;;4999097;28;20323;-96
2020/12/27 05:33:58;;;;;;;2.20;1.80;;;5.80;83.60;;;;;;5014734;28;20022;-96
2020/12/27 05:36:24;;;;;;;1.67;1.58;;;5.70;83.90;;;;;;5007256;28;20097;-95
2020/12/27 05:38:49;;;;;;;2.08;1.50;;;5.70;83.80;;;;;;5015972;28;20050;-92
2020/12/27 05:41:26;;;;;;;1.63;1.40;;;5.70;83.90;;;;;;5014631;28;20093;-93
2020/12/27 05:44:03;;;;;;;1.83;1.55;;;5.70;83.90;;;;;;5015903;28;20030;-93
2020/12/27 05:46:30;;;;;;;1.42;1.33;;;5.70;84.00;;;;;;5005962;28;20014;-94
2020/12/27 05:48:58;;;;;;;1.70;1.60;;;5.70;84.10;;;;;;5016181;28;20031;-94
2020/12/27 05:51:24;;;;;;;1.58;1.48;;;5.70;84.20;;;;;;5006461;28;20083;-94
2020/12/27 05:53:51;;;;;;;2.67;1.38;;;5.70;84.30;;;;;;5013647;28;20054;-93
2020/12/27 05:56:19;;;;;;;1.30;1.20;;;5.70;84.40;;;;;;5011761;28;20049;-92
2020/12/27 05:58:45;;;;;;;1.35;1.25;;;5.70;84.50;;;;;;5009550;28;20038;-92
2020/12/27 06:01:20;;;;;;;1.65;1.30;;;5.70;84.60;;;;;;5007636;28;20026;-92
2020/12/27 06:03:57;;;;;;;1.83;1.30;;;5.70;84.70;;;;;;4995914;28;20030;-91
2020/12/27 06:06:44;;;;;;;1.17;1.08;;;5.70;84.80;;;;;;5010826;28;20022;-92
2020/12/27 06:09:11;;;;;;;1.35;1.20;;;5.70;84.90;;;;;;4996568;28;20034;-92
2020/12/27 06:11:54;;;;;;;1.25;1.15;;;5.70;84.90;;;;;;4988023;28;20380;-92
2020/12/27 06:14:34;;;;;;;;;;;5.70;85.00;;;;;;4988554;28;20463;-91
2020/12/27 06:17:12;;;;;;;1.20;1.10;;;5.70;85.10;;;;;;4996421;28;19910;-92
2020/12/27 06:19:58;;;;;;;1.40;1.08;;;5.70;85.50;;;;;;4995054;28;20036;-92
2020/12/27 06:22:29;;;;;;;1.00;1.00;;;5.70;85.60;;;;;;4995794;28;20027;-92
2020/12/27 06:24:57;;;;;;;0.98;0.98;;;5.70;85.60;;;;;;5002481;28;20022;-92
2020/12/27 06:27:25;;;;;;;1.60;1.25;;;5.70;85.60;;;;;;4988811;28;20019;-91
2020/12/27 06:29:58;;;;;;;0.90;0.90;;;5.70;86.30;;;;;;5014417;28;20045;-95
2020/12/27 06:32:28;;;;;;;0.90;0.90;;;5.70;85.80;;;;;;5018756;28;20049;-90
2020/12/27 06:34:53;;;;;;;1.17;1.00;;;5.70;85.80;;;;;;5011958;28;20026;-90
2020/12/27 06:37:19;;;;;;;1.00;0.90;;;5.70;85.80;;;;;;5009208;28;20022;-91
2020/12/27 06:39:45;;;;;;;1.10;0.80;;;5.70;85.90;;;;;;5006891;28;20031;-92
2020/12/27 06:42:19;;;;;;;0.85;0.85;;;5.70;86.50;;;;;;5013477;28;20010;-92
2020/12/27 06:44:49;;;;;;;1.10;0.80;;;5.80;86.00;;;;;;5006284;28;20026;-92
2020/12/27 06:47:16;;;;;;;1.13;1.02;;;5.70;86.00;;;;;;5015298;28;20022;-92
2020/12/27 06:49:44;;;;;;;2.22;0.98;;;5.70;86.00;;;;;;5015132;28;20037;-91
2020/12/27 06:52:21;;;;;;;0.85;0.85;;;5.70;86.20;;;;;;5014157;28;20058;-92
2020/12/27 06:54:52;;;;;;;0.70;0.70;;;5.80;86.40;;;;;;4998391;28;20034;-92
2020/12/27 06:57:40;;;;;;;0.95;0.75;;;5.70;86.40;;;;;;5001679;28;20032;-91
2020/12/27 07:00:25;;;;;;;1.35;0.82;;;5.80;86.60;;;;;;4991510;28;20077;-90
2020/12/27 07:03:19;;;;;;;1.60;0.90;;;5.80;86.60;;;;;;5004522;28;20526;-87
2020/12/27 07:05:45;;;;;;;;;;;5.80;86.60;;;;;;4971451;28;20018;-89
2020/12/27 07:08:14;;;;;;;1.00;0.70;;;5.80;86.50;;;;;;4991911;28;19928;-88
2020/12/27 07:10:45;;;;;;;0.80;0.80;;;5.80;86.60;;;;;;4985651;28;20042;-90
2020/12/27 07:13:12;;;;;;;0.98;0.95;;;5.80;86.70;;;;;;4991956;28;20025;-89
2020/12/27 07:15:58;;;;;;;0.70;0.70;;;5.90;86.70;;;;;;5004666;28;20030;-88
2020/12/27 07:18:26;;;;;;;0.70;0.70;;;5.90;86.80;;;;;;5002779;28;20054;-90
2020/12/27 07:20:59;;;;;;;0.65;0.65;;;5.90;86.70;;;;;;4995571;28;20030;-91
2020/12/27 07:23:26;;;;;;;0.70;0.70;;;5.90;86.80;;;;;;4995825;28;20027;-91
2020/12/27 07:25:54;;;;;;;1.10;1.00;;;5.90;86.90;;;;;;4985447;28;20042;-91
2020/12/27 07:28:21;;;;;;;0.80;0.80;;;5.90;86.80;;;;;;4991286;28;20484;-91
2020/12/27 07:30:48;;;;;;;0.80;0.80;;;5.90;86.80;;;;;;4973094;28;20050;-93
2020/12/27 07:33:15;;;;;;;0.70;0.70;;;6.00;86.80;;;;;;4974582;28;20125;-90
2020/12/27 07:35:40;;;;;;;0.95;0.80;;;6.00;86.80;;;;;;4991555;28;20048;-91
2020/12/27 07:38:07;;;;;;;0.98;0.88;;;6.00;86.70;;;;;;4984223;28;20022;-90
2020/12/27 07:40:36;;;;;;;0.70;0.70;;;6.00;86.60;;;;;;4991907;28;20025;-91
2020/12/27 07:43:07;;;;;;;0.80;0.80;;;6.10;86.60;;;;;;4987360;28;20093;-91
2020/12/27 07:45:33;;;;;;;0.80;0.80;;;6.10;86.50;;;;;;4992160;28;20090;-91
2020/12/27 07:47:58;;;;;;;0.70;0.70;;;6.10;86.30;;;;;;4992288;28;20077;-89
2020/12/27 07:50:25;;;;;;;0.77;0.77;;;6.10;86.10;;;;;;4991317;28;20072;-92
2020/12/27 07:53:00;;;;;;;1.42;0.80;;;6.10;86.20;;;;;;4968067;28;20026;-94
2020/12/27 07:55:27;;;;;;;1.95;0.73;;;6.10;86.00;;;;;;4991553;28;20022;-95
2020/12/27 07:57:54;;;;;;;0.60;0.60;;;6.10;86.00;;;;;;4989705;28;20028;-94
2020/12/27 08:00:36;;;;;;;0.75;0.75;;;6.10;85.90;;;;;;4993689;28;20494;-94
2020/12/27 08:03:06;;;;;;;0.60;0.60;;;6.20;86.00;;;;;;4987723;28;20065;-94
2020/12/27 08:05:32;;;;;;;0.85;0.68;;;6.20;85.80;;;;;;4988380;28;20106;-94
2020/12/27 08:08:12;;;;;;;0.80;0.80;;;6.20;85.60;;;;;;4997375;28;20141;-94
2020/12/27 08:10:39;;;;;;;0.70;0.70;;;6.20;85.50;;;;;;4978011;28;20136;-96
2020/12/27 08:13:05;;;;;;;0.80;0.80;;;6.20;85.40;;;;;;4991793;28;20072;-94
2020/12/27 08:15:38;;;;;;;1.38;0.80;;;6.20;85.40;;;;;;4999141;28;20022;-93
2020/12/27 08:18:09;;;;;;;0.55;0.55;;;6.20;85.30;;;;;;4996912;28;20033;-95
2020/12/27 08:20:47;;;;;;;0.68;0.68;;;6.20;85.80;;;;;;4980919;28;20029;-95
2020/12/27 08:23:14;;;;;;;0.60;0.60;;;6.20;85.00;;;;;;5006625;28;20034;-93
2020/12/27 08:25:40;;;;;;;0.63;0.63;;;6.20;84.90;;;;;;4994322;28;20460;-95
2020/12/27 08:28:08;;;;;;;0.68;0.65;;;6.30;85.50;;;;;;4994920;28;20041;-94
2020/12/27 08:30:41;;;;;;;0.98;0.80;;;6.30;84.80;;;;;;4997514;28;20034;-93
2020/12/27 08:33:13;;;;;;;0.95;0.63;;;6.30;84.80;;;;;;5002723;28;20094;-93
2020/12/27 08:35:45;;;;;;;0.70;0.70;;;6.30;84.50;;;;;;4980296;28;20027;-93
2020/12/27 08:38:45;;;;;;;0.75;0.60;;;6.30;84.50;;;;;;4986065;28;20042;-93
2020/12/27 08:41:19;;;;;;;0.63;0.63;;;6.30;84.40;;;;;;4978586;28;20492;-95
2020/12/27 08:44:06;;;;;;;0.60;0.60;;;6.40;84.30;;;;;;4993073;28;20033;-96
2020/12/27 08:46:38;;;;;;;0.60;0.60;;;6.40;84.20;;;;;;4997031;28;20030;-94
2020/12/27 08:49:10;;;;;;;1.08;0.70;;;6.40;83.90;;;;;;5002675;28;20034;-94
2020/12/27 08:51:39;;;;;;;1.48;0.70;;;6.40;83.80;;;;;;4998726;28;20037;-94
2020/12/27 08:54:10;;;;;;;0.60;0.60;;;6.40;83.80;;;;;;4991779;28;20496;-94
2020/12/27 08:56:36;;;;;;;0.60;0.60;;;6.50;83.80;;;;;;4993682;28;20122;-95
2020/12/27 08:59:02;;;;;;;1.38;0.57;;;6.50;83.80;;;;;;4999707;28;20062;-95
2020/12/27 09:01:29;;;;;;;0.70;0.70;;;6.50;84.00;;;;;;5003486;28;20451;-95
2020/12/27 09:06:35;;;;;;;0.70;0.70;;;6.40;84.30;;;;;;5121752;23;20057;-95
2020/12/27 09:09:10;;;;;;;1.25;0.80;;;6.40;84.40;;;;;;5018275;28;20061;-96
2020/12/27 09:11:46;;;;;;;0.75;0.75;;;6.50;84.60;;;;;;5018714;28;20029;-96
2020/12/27 09:14:33;;;;;;;0.70;0.70;;;6.40;84.80;;;;;;5017747;28;20014;-96
2020/12/27 09:17:08;;;;;;;0.60;0.60;;;6.40;85.10;;;;;;5009843;28;20038;-96
2020/12/27 09:19:59;;;;;;;0.50;0.50;;;6.40;85.30;;;;;;5006295;28;20031;-96
2020/12/27 09:26:13;;;;;;;1.02;0.68;;;6.30;85.50;;;;;;4977996;28;20038;-95
2020/12/27 09:28:40;;;;;;;0.60;0.60;;;6.40;85.50;;;;;;4992454;28;20026;-96
2020/12/27 09:31:13;;;;;;;0.63;0.63;;;6.40;85.60;;;;;;4993521;28;20059;-95
2020/12/27 09:33:48;;;;;;;0.73;0.70;;;6.40;85.70;;;;;;4993566;28;20089;-95
2020/12/27 09:36:15;;;;;;;0.60;0.60;;;6.40;85.80;;;;;;5001998;28;20028;-95
2020/12/27 09:38:43;;;;;;;0.60;0.60;;;6.40;85.90;;;;;;4999598;28;20031;-96
2020/12/27 09:41:17;;;;;;;0.70;0.70;;;6.40;85.80;;;;;;5000552;28;20026;-95
2020/12/27 09:43:58;;;;;;;0.63;0.63;;;6.40;85.90;;;;;;4997034;28;20053;-95
2020/12/27 09:46:47;;;;;;;1.00;0.70;;;6.40;85.80;;;;;;4997786;28;20026;-94
2020/12/27 09:49:23;;;;;;;0.60;0.60;;;6.40;85.80;;;;;;4997064;28;20126;-95
2020/12/27 09:52:10;;;;;;;0.60;0.60;;;6.40;85.70;;;;;;5065827;23;20164;-95
2020/12/27 09:54:41;;;;;;;0.60;0.60;;;6.50;85.70;;;;;;5002355;28;20032;-93
2020/12/27 09:57:13;;;;;;;0.70;0.70;;;6.50;85.70;;;;;;4996019;28;20026;-95
2020/12/27 10:00:05;;;;;;;0.98;0.82;;;6.50;85.50;;;;;;5011669;28;20025;-93
2020/12/27 10:02:31;;;;;;;1.20;1.10;;;6.50;85.50;;;;;;4987426;28;20029;-92
2020/12/27 10:04:56;;;;;;;0.85;0.85;;;6.50;85.60;;;;;;4982631;28;20034;-92
2020/12/27 10:07:22;;;;;;;1.80;1.30;;;6.50;85.80;;;;;;5001627;28;20029;-92
2020/12/27 10:09:47;;;;;;;1.33;0.93;;;6.50;85.80;;;;;;5000124;28;20469;-93
2020/12/27 10:12:13;;;;;;;1.13;0.90;;;6.50;86.00;;;;;;5000121;28;20018;-90
2020/12/27 10:14:39;;;;;;;1.30;1.20;;;6.50;86.10;;;;;;4990184;28;20026;-92
2020/12/27 10:17:05;;;;;;;1.48;1.38;;;6.50;86.20;;;;;;4998572;28;20022;-91
2020/12/27 10:19:31;;;;;;;1.55;1.30;;;6.50;86.30;;;;;;4994151;28;20391;-92
2020/12/27 10:22:47;;;;;;;1.55;1.45;;;6.50;86.20;;;;;;5106069;23;20056;-90
2020/12/27 10:25:19;;;;;;;0.80;0.80;;;6.60;86.30;;;;;;4935151;29;20068;-93
2020/12/27 10:27:44;;;;;;;0.80;0.80;;;6.50;86.40;;;;;;5005794;28;20554;-92
2020/12/27 10:30:22;;;;;;;1.20;1.10;;;6.50;86.30;;;;;;5009588;28;20030;-92
2020/12/27 10:32:48;;;;;;;0.70;0.70;;;6.50;86.30;;;;;;4976723;28;20023;-92
2020/12/27 10:35:19;;;;;;;0.73;0.73;;;6.50;86.20;;;;;;4995240;28;20037;-91
2020/12/27 10:37:45;;;;;;;1.95;0.90;;;6.50;86.00;;;;;;4990591;28;20030;-91
2020/12/27 10:40:12;;;;;;;1.25;1.00;;;6.50;86.10;;;;;;4988453;28;20026;-91
2020/12/27 10:42:38;;;;;;;1.00;1.00;;;6.50;86.10;;;;;;4991014;28;20172;-90
2020/12/27 10:45:04;;;;;;;1.52;1.02;;;6.50;86.10;;;;;;4990962;28;20481;-92
2020/12/27 10:47:29;;;;;;;1.00;0.90;;;6.40;86.10;;;;;;4990001;28;20117;-92
2020/12/27 10:49:56;;;;;;;0.88;0.80;;;6.50;86.10;;;;;;4993718;28;20066;-93
2020/12/27 10:52:22;;;;;;;0.70;0.70;;;6.50;86.00;;;;;;4979816;28;20022;-89
2020/12/27 10:54:47;;;;;;;0.80;0.80;;;6.50;86.00;;;;;;5001871;28;20040;-89
2020/12/27 10:57:13;;;;;;;1.45;1.35;;;6.50;85.90;;;;;;4986192;28;20033;-89
2020/12/27 10:59:39;;;;;;;0.90;0.90;;;6.50;85.80;;;;;;4987072;28;20101;-90
2020/12/27 11:02:05;;;;;;;1.50;1.40;;;6.60;85.70;;;;;;4969584;28;20023;-90
2020/12/27 11:04:31;;;;;;;1.08;0.80;;;6.60;85.60;;;;;;4986730;28;20474;-90
2020/12/27 11:06:56;;;;;;;1.10;1.00;;;6.60;85.60;;;;;;4990657;28;20007;-90
2020/12/27 11:09:22;;;;;;;0.80;0.80;;;6.50;85.60;;;;;;4974347;28;20117;-90
2020/12/27 11:11:47;;;;;;;0.80;0.80;;;6.60;85.50;;;;;;4989756;28;20027;-91
2020/12/27 11:14:13;;;;;;;1.50;0.82;;;6.60;85.50;;;;;;4965693;28;20023;-89
2020/12/27 11:16:38;;;;;;;0.60;0.60;;;6.60;85.40;;;;;;4990706;28;20022;-93
2020/12/27 11:19:05;;;;;;;0.60;0.60;;;6.60;85.30;;;;;;4995312;28;20018;-91
2020/12/27 11:21:32;;;;;;;0.70;0.63;;;6.60;85.90;;;;;;5005526;28;20018;-93
2020/12/27 11:23:58;;;;;;;0.90;0.80;;;6.60;85.20;;;;;;4991032;28;20022;-91
2020/12/27 11:26:23;;;;;;;1.20;1.10;;;6.60;85.00;;;;;;4978483;28;20036;-91
2020/12/27 11:28:49;;;;;;;0.88;0.88;;;6.60;85.00;;;;;;4987557;28;20046;-92
2020/12/27 11:31:19;;;;;;;0.70;0.70;;;6.60;85.00;;;;;;5002805;28;20049;-93
2020/12/27 11:33:46;;;;;;;1.02;0.80;;;6.60;85.00;;;;;;5009949;28;20038;-91
2020/12/27 11:36:12;;;;;;;0.80;0.80;;;6.70;85.00;;;;;;4988827;28;20038;-92
2020/12/27 11:38:38;;;;;;;0.85;0.60;;;6.70;84.90;;;;;;4970885;28;20688;-91
2020/12/27 11:41:05;;;;;;;0.73;0.63;;;6.70;84.80;;;;;;4988844;28;20086;-91
2020/12/27 11:43:31;;;;;;;1.08;0.80;;;6.70;84.80;;;;;;4973158;28;20030;-90
2020/12/27 11:46:27;;;;;;;0.60;0.60;;;6.80;84.70;;;;;;4967278;28;20042;-91
2020/12/27 11:48:53;;;;;;;0.80;0.80;;;6.70;84.30;;;;;;4905090;28;20179;-91
2020/12/27 11:51:40;;;;;;;0.80;0.80;;;6.80;84.10;;;;;;4982790;28;20121;-90
2020/12/27 11:54:06;;;;;;;0.68;0.60;;;6.80;83.90;;;;;;4967501;28;20027;-89
2020/12/27 11:56:32;;;;;;;0.93;0.90;;;6.80;84.20;;;;;;4984205;28;20026;-91
2020/12/27 11:59:01;;;;;;;1.20;1.02;;;6.80;83.40;;;;;;4985963;28;20500;-89
2020/12/27 12:01:26;;;;;;;0.82;0.82;;;6.80;84.10;;;;;;4993790;28;20026;-91
2020/12/27 12:03:58;;;;;;;0.90;0.90;;;6.90;83.40;;;;;;4986213;28;20028;-90
2020/12/27 12:06:51;;;;;;;0.75;0.70;;;6.90;83.20;;;;;;4984561;28;20018;-90
2020/12/27 12:09:17;;;;;;;1.35;1.00;;;6.90;83.00;;;;;;4982670;28;20072;-88
2020/12/27 12:11:43;;;;;;;1.60;1.50;;;6.90;83.00;;;;;;4985562;28;20081;-90
2020/12/27 12:14:10;;;;;;;1.95;1.58;;;6.90;82.90;;;;;;4983005;28;20629;-89
2020/12/27 12:19:35;;;;;;;2.25;1.77;;;6.90;82.30;;;;;;5147104;23;20045;-91
2020/12/27 12:22:37;;;;;;;1.23;0.75;;;7.00;82.30;;;;;;4988973;28;20030;-88
2020/12/27 12:25:07;;;;;;;0.90;0.90;;;7.00;82.20;;;;;;5008708;28;20052;-89
2020/12/27 12:27:33;;;;;;;1.08;1.00;;;7.00;82.50;;;;;;4995728;28;20050;-89
2020/12/27 12:29:58;;;;;;;1.17;1.08;;;7.00;81.70;;;;;;5038741;28;20130;-90
2020/12/27 12:32:24;;;;;;;1.48;1.30;;;7.00;81.80;;;;;;5044895;28;20030;-91
2020/12/27 12:34:49;;;;;;;0.90;0.90;;;7.00;81.60;;;;;;5021079;28;20029;-91
2020/12/27 12:37:15;;;;;;;1.00;1.00;;;7.00;81.70;;;;;;5013236;28;20018;-90
2020/12/27 12:39:40;;;;;;;1.10;1.00;;;7.00;81.50;;;;;;5023996;28;20032;-90
2020/12/27 12:42:06;;;;;;;1.77;1.65;;;7.00;81.40;;;;;;4999842;28;20494;-89
2020/12/27 12:44:31;;;;;;;2.83;2.63;;;7.00;81.20;;;;;;5015752;28;20029;-89
2020/12/27 12:46:57;;;;;;;1.13;1.05;;;7.00;81.20;;;;;;5031355;28;20041;-89
2020/12/27 12:49:22;;;;;;;1.60;0.90;;;7.00;81.10;;;;;;5030280;28;20107;-88
2020/12/27 12:51:48;;;;;;;0.90;0.90;;;7.00;81.00;;;;;;5015679;28;20029;-89
2020/12/27 12:54:13;;;;;;;0.90;0.90;;;7.00;81.00;;;;;;5033191;28;20033;-89
2020/12/27 12:56:39;;;;;;;1.65;1.55;;;7.00;81.10;;;;;;5016582;28;20403;-89
2020/12/27 12:59:05;;;;;;;4.35;3.20;;;7.00;81.10;;;;;;5015791;28;20040;-90
2020/12/27 13:01:30;;;;;;;4.88;3.40;;;7.00;80.90;;;;;;5019669;28;20021;-90
2020/12/27 13:03:57;;;;;;;2.92;2.45;;;7.00;81.00;;;;;;5029070;28;20018;-90
2020/12/27 13:06:23;;;;;;;5.13;3.53;;;7.10;81.00;;;;;;5030429;28;20031;-90
2020/12/27 13:08:48;;;;;;;1.77;1.60;;;7.10;81.00;;;;;;5020329;28;20037;-90
2020/12/27 13:11:14;;;;;;;3.08;2.38;;;7.10;81.00;;;;;;5024541;28;20479;-91
2020/12/27 13:13:40;;;;;;;2.40;1.45;;;7.10;80.90;;;;;;5017076;28;20105;-91
2020/12/27 13:16:05;;;;;;;1.67;0.70;;;7.10;80.90;;;;;;5034911;28;20025;-90
2020/12/27 13:18:31;;;;;;;0.80;0.80;;;7.10;80.70;;;;;;5030256;28;20032;-89
2020/12/27 13:20:56;;;;;;;0.70;0.70;;;7.20;80.60;;;;;;5017280;28;20049;-89
2020/12/27 13:23:23;;;;;;;2.95;2.15;;;7.20;80.60;;;;;;5014898;28;20026;-89